createdAt,value
2019-03-27T00:04:51.245Z,5.90
2019-03-27T00:09:54.714Z,5.90
2019-03-27T00:15:11.604Z,5.90
2019-03-27T00:20:04.947Z,5.80
2019-03-27T00:25:09.161Z,5.80
2019-03-27T00:30:12.675Z,5.80
2019-03-27T00:35:16.054Z,5.80
2019-03-27T00:40:19.453Z,5.70
2019-03-27T00:45:27.010Z,5.70
2019-03-27T00:50:27.955Z,5.70
2019-03-27T00:55:31.335Z,5.60
2019-03-27T01:00:46.802Z,5.60
2019-03-27T01:05:50.184Z,5.60
2019-03-27T01:10:53.636Z,5.60
2019-03-27T01:15:57.020Z,5.60
2019-03-27T01:21:00.401Z,5.60
2019-03-27T01:26:03.776Z,5.50
2019-03-27T01:31:07.167Z,5.50
2019-03-27T01:36:10.555Z,5.50
2019-03-27T01:41:14.527Z,5.50
2019-03-27T01:46:17.911Z,5.50
2019-03-27T01:51:21.302Z,5.50
2019-03-27T01:56:24.692Z,5.40
2019-03-27T02:01:28.071Z,5.40
2019-03-27T02:06:31.450Z,5.40
2019-03-27T02:11:34.833Z,5.40
2019-03-27T02:16:38.219Z,5.30
2019-03-27T02:21:41.595Z,5.30
2019-03-27T02:26:44.975Z,5.30
2019-03-27T02:31:48.352Z,5.30
2019-03-27T02:36:51.736Z,5.30
2019-03-27T02:41:55.117Z,5.30
2019-03-27T02:46:58.508Z,5.20
2019-03-27T02:52:01.895Z,5.20
2019-03-27T02:57:05.275Z,5.20
2019-03-27T03:02:08.723Z,5.20
2019-03-27T03:07:12.105Z,5.20
2019-03-27T03:12:15.480Z,5.20
2019-03-27T03:17:18.903Z,5.20
2019-03-27T03:22:22.272Z,5.20
2019-03-27T03:27:25.672Z,5.10
2019-03-27T03:32:29.099Z,5.10
2019-03-27T03:37:32.548Z,5.10
2019-03-27T03:42:35.936Z,5.10
2019-03-27T03:47:39.319Z,5.10
2019-03-27T03:52:45.907Z,5.10
2019-03-27T03:57:48.200Z,5.10
2019-03-27T04:02:53.321Z,5.10
2019-03-27T04:07:56.821Z,5.10
2019-03-27T04:13:00.167Z,5.10
2019-03-27T04:18:03.557Z,5.10
2019-03-27T04:23:07.709Z,5.10
2019-03-27T04:28:11.090Z,5.10
2019-03-27T04:33:14.471Z,5.10
2019-03-27T04:38:17.853Z,5.10
2019-03-27T04:43:21.284Z,5.00
2019-03-27T04:48:24.645Z,5.10
2019-03-27T04:53:28.032Z,5.00
2019-03-27T04:58:31.467Z,5.00
2019-03-27T05:03:34.842Z,5.00
2019-03-27T05:08:38.231Z,5.10
2019-03-27T05:13:41.617Z,5.00
2019-03-27T05:18:44.995Z,5.00
2019-03-27T05:23:48.378Z,5.00
2019-03-27T05:28:51.768Z,5.00
2019-03-27T05:33:55.153Z,5.00
2019-03-27T05:38:58.527Z,5.00
2019-03-27T05:44:01.906Z,5.00
2019-03-27T05:49:05.288Z,5.00
2019-03-27T05:54:08.687Z,5.00
2019-03-27T05:59:12.083Z,5.00
2019-03-27T06:04:15.465Z,5.00
2019-03-27T06:09:18.848Z,5.10
2019-03-27T06:14:22.244Z,5.10
2019-03-27T06:19:25.665Z,5.10
2019-03-27T06:24:29.139Z,5.10
2019-03-27T06:29:32.524Z,5.10
2019-03-27T06:34:35.908Z,5.20
2019-03-27T06:39:39.293Z,5.20
2019-03-27T06:44:42.683Z,5.30
2019-03-27T06:49:46.075Z,5.30
2019-03-27T06:54:49.444Z,5.30
2019-03-27T06:59:52.836Z,5.40
2019-03-27T07:04:56.227Z,5.50
2019-03-27T07:09:59.613Z,5.50
2019-03-27T07:15:03.331Z,5.60
2019-03-27T07:20:07.466Z,5.60
2019-03-27T07:25:10.954Z,5.70
2019-03-27T07:30:14.562Z,5.70
2019-03-27T07:35:18.347Z,5.80
2019-03-27T07:40:21.800Z,5.90
2019-03-27T07:45:25.189Z,5.90
2019-03-27T07:50:28.568Z,6.00
2019-03-27T07:55:31.951Z,6.00
2019-03-27T08:00:35.332Z,6.10
2019-03-27T08:05:38.708Z,6.20
2019-03-27T08:10:42.109Z,6.30
2019-03-27T08:15:45.488Z,6.40
2019-03-27T08:20:48.860Z,6.50
2019-03-27T08:25:52.249Z,6.60
2019-03-27T08:30:55.668Z,6.70
2019-03-27T08:35:59.037Z,6.80
2019-03-27T08:41:02.447Z,6.90
2019-03-27T08:46:05.818Z,7.00
2019-03-27T08:51:09.199Z,7.10
2019-03-27T08:56:12.579Z,7.20
2019-03-27T09:01:15.995Z,7.30
2019-03-27T09:06:32.765Z,7.50
2019-03-27T09:11:24.503Z,7.60
2019-03-27T09:16:27.892Z,7.70
2019-03-27T09:21:31.288Z,7.80
2019-03-27T09:26:34.664Z,8.00
2019-03-27T09:31:44.842Z,8.10
2019-03-27T09:36:43.188Z,8.30
2019-03-27T09:41:46.664Z,8.50
2019-03-27T09:46:50.051Z,8.70
2019-03-27T09:51:53.440Z,8.90
2019-03-27T09:56:56.819Z,9.10
2019-03-27T10:02:00.230Z,9.30
2019-03-27T10:07:03.628Z,9.40
2019-03-27T10:12:06.990Z,9.60
2019-03-27T10:17:10.452Z,9.70
2019-03-27T10:22:13.872Z,9.90
2019-03-27T10:27:17.263Z,9.90
2019-03-27T10:32:20.654Z,9.90
2019-03-27T10:37:24.051Z,10.00
2019-03-27T10:42:27.432Z,9.90
2019-03-27T10:47:30.807Z,9.90
2019-03-27T10:52:34.191Z,9.90
2019-03-27T10:57:38.449Z,9.90
2019-03-27T11:02:41.842Z,10.00
2019-03-27T11:07:45.269Z,10.10
2019-03-27T11:12:48.683Z,10.30
2019-03-27T11:17:52.075Z,10.50
2019-03-27T11:22:55.453Z,10.60
2019-03-27T11:27:58.851Z,10.80
2019-03-27T11:33:02.240Z,11.00
2019-03-27T11:38:05.623Z,11.30
2019-03-27T11:43:09.004Z,11.50
2019-03-27T11:48:12.475Z,11.70
2019-03-27T11:53:15.859Z,11.80
2019-03-27T11:58:19.252Z,11.90
2019-03-27T12:03:22.647Z,11.90
2019-03-27T12:08:26.032Z,12.00
2019-03-27T12:13:29.435Z,11.90
2019-03-27T12:18:32.820Z,12.10
2019-03-27T12:28:51.201Z,12.10
2019-03-27T12:33:54.582Z,12.10
2019-03-27T12:38:57.987Z,12.20
2019-03-27T12:44:02.750Z,12.40
2019-03-27T12:49:06.251Z,12.70
2019-03-27T12:54:09.667Z,12.90
2019-03-27T12:59:13.088Z,13.10
2019-03-27T13:04:16.487Z,13.30
2019-03-27T13:09:19.883Z,13.30
2019-03-27T13:14:23.303Z,13.40
2019-03-27T13:19:26.680Z,13.50
2019-03-27T13:24:30.059Z,13.60
2019-03-27T13:29:33.436Z,13.60
2019-03-27T13:34:36.819Z,13.70
2019-03-27T13:39:40.196Z,13.70
2019-03-27T13:44:43.579Z,13.70
2019-03-27T13:49:46.960Z,13.50
2019-03-27T13:54:50.341Z,13.50
2019-03-27T13:59:53.807Z,13.50
2019-03-27T14:04:57.191Z,13.50
2019-03-27T14:10:00.568Z,13.50
2019-03-27T14:15:08.324Z,13.50
2019-03-27T14:20:13.887Z,13.40
2019-03-27T14:25:17.796Z,13.30
2019-03-27T14:30:46.816Z,13.20
2019-03-27T14:35:50.269Z,13.10
2019-03-27T14:40:53.719Z,13.00
2019-03-27T14:45:57.110Z,13.00
2019-03-27T14:51:00.572Z,13.00
2019-03-27T14:56:04.033Z,12.90
2019-03-27T15:01:07.428Z,12.80
2019-03-27T15:06:10.813Z,12.80
2019-03-27T15:11:14.195Z,12.70
2019-03-27T15:16:17.584Z,12.70
2019-03-27T15:21:20.970Z,12.60
2019-03-27T15:26:24.355Z,12.50
2019-03-27T15:31:27.744Z,12.50
2019-03-27T15:36:31.127Z,12.40
2019-03-27T15:41:34.508Z,12.30
2019-03-27T15:46:37.900Z,12.30
2019-03-27T15:51:41.287Z,12.20
2019-03-27T15:56:44.663Z,12.00
2019-03-27T16:01:48.056Z,12.00
2019-03-27T16:06:51.444Z,12.00
2019-03-27T16:11:54.828Z,11.90
2019-03-27T16:17:12.735Z,11.80
2019-03-27T16:22:03.589Z,11.80
2019-03-27T16:27:06.970Z,11.70
2019-03-27T16:32:10.411Z,11.60
2019-03-27T16:37:15.650Z,11.60
2019-03-27T16:42:19.056Z,11.50
2019-03-27T16:47:22.478Z,11.40
2019-03-27T16:52:25.953Z,11.30
2019-03-27T16:57:29.311Z,11.30
2019-03-27T17:02:32.696Z,11.20
2019-03-27T17:07:36.078Z,11.10
2019-03-27T17:12:39.463Z,11.00
2019-03-27T17:17:42.845Z,10.90
2019-03-27T17:22:46.315Z,10.80
2019-03-27T17:27:49.683Z,10.70
2019-03-27T17:32:53.068Z,10.60
2019-03-27T17:37:56.449Z,10.60
2019-03-27T17:42:59.837Z,10.50
2019-03-27T17:48:03.216Z,10.40
2019-03-27T17:53:06.591Z,10.40
2019-03-27T17:58:09.980Z,10.30
2019-03-27T18:03:13.471Z,10.20
2019-03-27T18:08:16.843Z,10.20
2019-03-27T18:13:20.289Z,10.10
2019-03-27T18:18:23.689Z,10.10
2019-03-27T18:23:27.104Z,9.90
2019-03-27T18:28:30.548Z,9.90
2019-03-27T18:33:34.312Z,9.80
2019-03-27T18:38:37.776Z,9.80
2019-03-27T18:43:41.185Z,9.80
2019-03-27T18:48:44.575Z,9.70
2019-03-27T18:53:59.066Z,9.70
2019-03-27T18:58:53.196Z,9.60
2019-03-27T19:03:56.611Z,9.50
2019-03-27T19:09:00.027Z,9.50
2019-03-27T19:14:03.420Z,9.40
2019-03-27T19:19:06.803Z,9.40
2019-03-27T19:24:14.972Z,9.40
2019-03-27T19:29:15.299Z,9.30
2019-03-27T19:34:18.671Z,9.30
2019-03-27T19:39:22.132Z,9.20
2019-03-27T19:44:25.513Z,9.20
2019-03-27T19:49:28.970Z,9.10
2019-03-27T19:54:32.355Z,9.10
2019-03-27T19:59:35.744Z,9.00
2019-03-27T20:04:39.119Z,9.00
2019-03-27T20:09:42.503Z,8.90
2019-03-27T20:14:45.948Z,8.90
2019-03-27T20:19:49.312Z,8.90
2019-03-27T20:24:53.381Z,8.80
2019-03-27T20:29:56.765Z,8.70
2019-03-27T20:35:00.361Z,8.70
2019-03-27T20:40:07.338Z,8.70
2019-03-27T20:45:12.419Z,8.60
2019-03-27T20:50:16.339Z,8.60
2019-03-27T20:55:29.557Z,8.50
2019-03-27T21:00:24.830Z,8.40
2019-03-27T21:05:28.224Z,8.40
2019-03-27T21:10:31.604Z,8.30
2019-03-27T21:15:38.230Z,8.30
2019-03-27T21:20:40.076Z,8.30
2019-03-27T21:25:43.463Z,8.20
2019-03-27T21:30:46.874Z,8.10
2019-03-27T21:35:50.303Z,8.10
2019-03-27T21:40:53.691Z,8.00
2019-03-27T21:45:57.080Z,8.00
2019-03-27T21:51:00.479Z,7.90
2019-03-27T21:56:03.869Z,7.90
2019-03-27T22:01:07.367Z,7.80
2019-03-27T22:06:10.749Z,7.80
2019-03-27T22:11:14.192Z,7.70
2019-03-27T22:16:17.567Z,7.70
2019-03-27T22:21:20.947Z,7.60
2019-03-27T22:26:24.334Z,7.60
2019-03-27T22:31:27.730Z,7.60
2019-03-27T22:36:31.106Z,7.60
2019-03-27T22:41:34.511Z,7.50
2019-03-27T22:46:37.899Z,7.50
2019-03-27T22:51:41.284Z,7.40
2019-03-27T22:56:44.675Z,7.40
2019-03-27T23:01:48.130Z,7.30
2019-03-27T23:06:51.515Z,7.30
2019-03-27T23:11:54.895Z,7.30
2019-03-27T23:16:58.271Z,7.30
2019-03-27T23:22:01.643Z,7.20
2019-03-27T23:27:05.019Z,7.20
2019-03-27T23:32:08.415Z,7.20
2019-03-27T23:37:11.799Z,7.20
2019-03-27T23:42:16.417Z,7.10
2019-03-27T23:47:19.939Z,7.10
2019-03-27T23:52:23.323Z,7.10
2019-03-27T23:57:26.711Z,7.10
